sensor_id;sensor_type;location;lat;lon;timestamp;P1;durP1;ratioP1;P2;durP2;ratioP2
53483;SDS011;75581;50.088;19.966;2024-01-25T00:00:40;7.30;;;2.10;;
53483;SDS011;75581;50.088;19.966;2024-01-25T00:03:29;7.90;;;1.70;;
53483;SDS011;75581;50.088;19.966;2024-01-25T00:05:59;7.20;;;1.70;;
53483;SDS011;75581;50.088;19.966;2024-01-25T00:08:28;6.90;;;1.60;;
53483;SDS011;75581;50.088;19.966;2024-01-25T00:10:57;7.40;;;2.40;;
53483;SDS011;75581;50.088;19.966;2024-01-25T00:13:26;8.20;;;2.30;;
53483;SDS011;75581;50.088;19.966;2024-01-25T00:15:55;6.70;;;1.60;;
53483;SDS011;75581;50.088;19.966;2024-01-25T00:18:24;6.30;;;2.10;;
53483;SDS011;75581;50.088;19.966;2024-01-25T00:20:53;6.80;;;1.70;;
53483;SDS011;75581;50.088;19.966;2024-01-25T00:23:22;6.10;;;1.40;;
53483;SDS011;75581;50.088;19.966;2024-01-25T00:25:51;5.90;;;1.20;;
53483;SDS011;75581;50.088;19.966;2024-01-25T00:28:20;7.30;;;2.10;;
53483;SDS011;75581;50.088;19.966;2024-01-25T00:30:49;5.70;;;1.50;;
53483;SDS011;75581;50.088;19.966;2024-01-25T00:33:18;6.30;;;1.80;;
53483;SDS011;75581;50.088;19.966;2024-01-25T00:35:48;5.60;;;1.60;;
53483;SDS011;75581;50.088;19.966;2024-01-25T00:38:18;5.10;;;1.60;;
53483;SDS011;75581;50.088;19.966;2024-01-25T00:40:49;8.10;;;1.80;;
53483;SDS011;75581;50.088;19.966;2024-01-25T00:43:18;7.40;;;2.40;;
53483;SDS011;75581;50.088;19.966;2024-01-25T00:45:48;6.30;;;2.10;;
53483;SDS011;75581;50.088;19.966;2024-01-25T00:48:17;10.90;;;2.10;;
53483;SDS011;75581;50.088;19.966;2024-01-25T00:50:46;6.00;;;1.70;;
53483;SDS011;75581;50.088;19.966;2024-01-25T00:53:15;6.90;;;2.00;;
53483;SDS011;75581;50.088;19.966;2024-01-25T00:55:44;8.30;;;1.90;;
53483;SDS011;75581;50.088;19.966;2024-01-25T00:58:13;10.20;;;2.60;;
53483;SDS011;75581;50.088;19.966;2024-01-25T01:00:43;6.30;;;2.20;;
53483;SDS011;75581;50.088;19.966;2024-01-25T01:03:12;7.60;;;1.90;;
53483;SDS011;75581;50.088;19.966;2024-01-25T01:05:43;7.90;;;2.30;;
53483;SDS011;75581;50.088;19.966;2024-01-25T01:08:12;7.10;;;2.10;;
53483;SDS011;75581;50.088;19.966;2024-01-25T01:10:41;8.30;;;2.20;;
53483;SDS011;75581;50.088;19.966;2024-01-25T01:13:10;6.10;;;2.30;;
53483;SDS011;75581;50.088;19.966;2024-01-25T01:15:39;6.70;;;2.20;;
53483;SDS011;75581;50.088;19.966;2024-01-25T01:18:08;7.50;;;2.40;;
53483;SDS011;75581;50.088;19.966;2024-01-25T01:20:37;9.80;;;2.40;;
53483;SDS011;75581;50.088;19.966;2024-01-25T01:23:06;7.40;;;2.10;;
53483;SDS011;75581;50.088;19.966;2024-01-25T01:25:35;9.00;;;2.50;;
53483;SDS011;75581;50.088;19.966;2024-01-25T01:28:04;7.80;;;2.00;;
53483;SDS011;75581;50.088;19.966;2024-01-25T01:30:32;8.30;;;2.80;;
53483;SDS011;75581;50.088;19.966;2024-01-25T01:33:01;8.80;;;2.20;;
53483;SDS011;75581;50.088;19.966;2024-01-25T01:35:30;6.90;;;2.20;;
53483;SDS011;75581;50.088;19.966;2024-01-25T01:37:59;5.60;;;2.10;;
53483;SDS011;75581;50.088;19.966;2024-01-25T01:40:28;8.00;;;2.30;;
53483;SDS011;75581;50.088;19.966;2024-01-25T01:42:58;8.70;;;2.10;;
53483;SDS011;75581;50.088;19.966;2024-01-25T01:45:30;6.20;;;1.70;;
53483;SDS011;75581;50.088;19.966;2024-01-25T01:47:59;8.20;;;2.60;;
53483;SDS011;75581;50.088;19.966;2024-01-25T01:50:28;7.00;;;2.10;;
53483;SDS011;75581;50.088;19.966;2024-01-25T01:52:57;5.80;;;1.40;;
53483;SDS011;75581;50.088;19.966;2024-01-25T01:55:27;6.10;;;2.00;;
53483;SDS011;75581;50.088;19.966;2024-01-25T01:57:56;7.50;;;2.10;;
53483;SDS011;75581;50.088;19.966;2024-01-25T02:00:26;6.70;;;2.00;;
53483;SDS011;75581;50.088;19.966;2024-01-25T02:03:00;7.80;;;2.10;;
53483;SDS011;75581;50.088;19.966;2024-01-25T02:05:30;5.00;;;1.70;;
53483;SDS011;75581;50.088;19.966;2024-01-25T02:07:59;4.90;;;1.90;;
53483;SDS011;75581;50.088;19.966;2024-01-25T02:10:28;6.00;;;2.00;;
53483;SDS011;75581;50.088;19.966;2024-01-25T02:12:57;10.50;;;2.10;;
53483;SDS011;75581;50.088;19.966;2024-01-25T02:15:26;8.00;;;2.40;;
53483;SDS011;75581;50.088;19.966;2024-01-25T02:17:55;5.80;;;1.50;;
53483;SDS011;75581;50.088;19.966;2024-01-25T02:20:25;6.80;;;2.20;;
53483;SDS011;75581;50.088;19.966;2024-01-25T02:22:54;8.30;;;2.10;;
53483;SDS011;75581;50.088;19.966;2024-01-25T02:25:23;5.80;;;1.60;;
53483;SDS011;75581;50.088;19.966;2024-01-25T02:27:52;7.00;;;1.70;;
53483;SDS011;75581;50.088;19.966;2024-01-25T02:30:22;5.40;;;1.50;;
53483;SDS011;75581;50.088;19.966;2024-01-25T02:32:51;4.50;;;1.50;;
53483;SDS011;75581;50.088;19.966;2024-01-25T02:35:21;3.40;;;1.10;;
53483;SDS011;75581;50.088;19.966;2024-01-25T02:37:51;9.40;;;2.10;;
53483;SDS011;75581;50.088;19.966;2024-01-25T02:40:19;6.50;;;1.70;;
53483;SDS011;75581;50.088;19.966;2024-01-25T02:42:48;8.80;;;2.00;;
53483;SDS011;75581;50.088;19.966;2024-01-25T02:45:18;8.50;;;2.10;;
53483;SDS011;75581;50.088;19.966;2024-01-25T02:50:41;5.80;;;1.90;;
53483;SDS011;75581;50.088;19.966;2024-01-25T02:53:10;8.20;;;1.80;;
53483;SDS011;75581;50.088;19.966;2024-01-25T02:55:38;9.20;;;2.50;;
53483;SDS011;75581;50.088;19.966;2024-01-25T02:58:07;6.90;;;2.20;;
53483;SDS011;75581;50.088;19.966;2024-01-25T03:00:36;6.30;;;1.90;;
53483;SDS011;75581;50.088;19.966;2024-01-25T03:03:05;6.40;;;1.60;;
53483;SDS011;75581;50.088;19.966;2024-01-25T03:05:34;7.60;;;1.70;;
53483;SDS011;75581;50.088;19.966;2024-01-25T03:08:03;11.00;;;2.20;;
53483;SDS011;75581;50.088;19.966;2024-01-25T03:10:32;4.50;;;1.70;;
53483;SDS011;75581;50.088;19.966;2024-01-25T03:13:01;6.60;;;1.40;;
53483;SDS011;75581;50.088;19.966;2024-01-25T03:15:30;7.30;;;1.70;;
53483;SDS011;75581;50.088;19.966;2024-01-25T03:18:00;7.50;;;1.60;;
53483;SDS011;75581;50.088;19.966;2024-01-25T03:20:29;5.10;;;1.40;;
53483;SDS011;75581;50.088;19.966;2024-01-25T03:22:58;4.10;;;1.20;;
53483;SDS011;75581;50.088;19.966;2024-01-25T03:25:27;7.60;;;1.60;;
53483;SDS011;75581;50.088;19.966;2024-01-25T03:27:56;7.60;;;1.60;;
53483;SDS011;75581;50.088;19.966;2024-01-25T03:30:25;7.70;;;1.70;;
53483;SDS011;75581;50.088;19.966;2024-01-25T03:32:54;4.70;;;1.10;;
53483;SDS011;75581;50.088;19.966;2024-01-25T03:35:24;7.30;;;1.70;;
53483;SDS011;75581;50.088;19.966;2024-01-25T03:37:53;9.30;;;1.80;;
53483;SDS011;75581;50.088;19.966;2024-01-25T03:40:21;7.20;;;1.70;;
53483;SDS011;75581;50.088;19.966;2024-01-25T03:42:51;7.60;;;1.80;;
53483;SDS011;75581;50.088;19.966;2024-01-25T03:45:40;7.20;;;1.60;;
53483;SDS011;75581;50.088;19.966;2024-01-25T03:48:08;8.50;;;1.70;;
53483;SDS011;75581;50.088;19.966;2024-01-25T03:50:37;8.60;;;1.90;;
53483;SDS011;75581;50.088;19.966;2024-01-25T03:53:06;10.10;;;1.90;;
53483;SDS011;75581;50.088;19.966;2024-01-25T03:55:35;7.50;;;1.60;;
53483;SDS011;75581;50.088;19.966;2024-01-25T03:58:04;8.30;;;2.30;;
53483;SDS011;75581;50.088;19.966;2024-01-25T04:00:33;10.60;;;1.80;;
53483;SDS011;75581;50.088;19.966;2024-01-25T04:03:03;8.20;;;2.20;;
53483;SDS011;75581;50.088;19.966;2024-01-25T04:05:32;12.50;;;1.90;;
53483;SDS011;75581;50.088;19.966;2024-01-25T04:08:01;11.40;;;2.00;;
53483;SDS011;75581;50.088;19.966;2024-01-25T04:10:31;12.20;;;1.90;;
53483;SDS011;75581;50.088;19.966;2024-01-25T04:13:00;9.00;;;1.60;;
53483;SDS011;75581;50.088;19.966;2024-01-25T04:15:30;6.90;;;1.80;;
53483;SDS011;75581;50.088;19.966;2024-01-25T04:17:59;11.10;;;1.80;;
53483;SDS011;75581;50.088;19.966;2024-01-25T04:20:28;10.10;;;1.90;;
53483;SDS011;75581;50.088;19.966;2024-01-25T04:22:58;7.60;;;1.60;;
53483;SDS011;75581;50.088;19.966;2024-01-25T04:25:26;6.70;;;1.40;;
53483;SDS011;75581;50.088;19.966;2024-01-25T04:27:58;14.50;;;1.90;;
53483;SDS011;75581;50.088;19.966;2024-01-25T04:30:28;5.20;;;1.30;;
53483;SDS011;75581;50.088;19.966;2024-01-25T04:32:59;7.50;;;1.40;;
53483;SDS011;75581;50.088;19.966;2024-01-25T04:35:28;7.10;;;1.50;;
53483;SDS011;75581;50.088;19.966;2024-01-25T04:38:00;8.30;;;1.90;;
53483;SDS011;75581;50.088;19.966;2024-01-25T04:40:29;10.60;;;2.20;;
53483;SDS011;75581;50.088;19.966;2024-01-25T04:42:58;13.90;;;1.70;;
53483;SDS011;75581;50.088;19.966;2024-01-25T04:45:27;8.30;;;1.50;;
53483;SDS011;75581;50.088;19.966;2024-01-25T04:47:56;4.80;;;1.00;;
53483;SDS011;75581;50.088;19.966;2024-01-25T04:50:25;9.40;;;1.60;;
53483;SDS011;75581;50.088;19.966;2024-01-25T04:52:54;9.70;;;1.90;;
53483;SDS011;75581;50.088;19.966;2024-01-25T04:55:23;9.00;;;1.70;;
53483;SDS011;75581;50.088;19.966;2024-01-25T04:57:52;6.90;;;1.70;;
53483;SDS011;75581;50.088;19.966;2024-01-25T05:00:22;8.30;;;2.20;;
53483;SDS011;75581;50.088;19.966;2024-01-25T05:02:51;9.30;;;1.60;;
53483;SDS011;75581;50.088;19.966;2024-01-25T05:05:19;6.30;;;1.50;;
53483;SDS011;75581;50.088;19.966;2024-01-25T05:07:48;8.40;;;1.80;;
53483;SDS011;75581;50.088;19.966;2024-01-25T05:10:18;7.30;;;1.70;;
53483;SDS011;75581;50.088;19.966;2024-01-25T05:12:47;7.00;;;1.60;;
53483;SDS011;75581;50.088;19.966;2024-01-25T05:15:17;8.90;;;1.80;;
53483;SDS011;75581;50.088;19.966;2024-01-25T05:17:46;7.10;;;1.40;;
53483;SDS011;75581;50.088;19.966;2024-01-25T05:20:15;8.60;;;1.70;;
53483;SDS011;75581;50.088;19.966;2024-01-25T05:22:46;6.90;;;1.80;;
53483;SDS011;75581;50.088;19.966;2024-01-25T05:25:15;7.50;;;1.50;;
53483;SDS011;75581;50.088;19.966;2024-01-25T05:27:44;8.00;;;1.60;;
53483;SDS011;75581;50.088;19.966;2024-01-25T05:30:14;7.50;;;1.70;;
53483;SDS011;75581;50.088;19.966;2024-01-25T05:32:43;6.00;;;2.20;;
53483;SDS011;75581;50.088;19.966;2024-01-25T05:35:12;7.00;;;1.80;;
53483;SDS011;75581;50.088;19.966;2024-01-25T05:37:41;7.80;;;1.80;;
53483;SDS011;75581;50.088;19.966;2024-01-25T05:40:11;6.60;;;1.70;;
53483;SDS011;75581;50.088;19.966;2024-01-25T05:42:40;7.60;;;1.60;;
53483;SDS011;75581;50.088;19.966;2024-01-25T05:45:09;8.40;;;1.90;;
53483;SDS011;75581;50.088;19.966;2024-01-25T05:47:39;9.30;;;2.00;;
53483;SDS011;75581;50.088;19.966;2024-01-25T05:50:08;6.70;;;1.70;;
53483;SDS011;75581;50.088;19.966;2024-01-25T05:52:37;5.60;;;1.50;;
53483;SDS011;75581;50.088;19.966;2024-01-25T05:55:07;6.30;;;1.70;;
53483;SDS011;75581;50.088;19.966;2024-01-25T05:57:36;6.20;;;1.40;;
53483;SDS011;75581;50.088;19.966;2024-01-25T06:00:05;4.60;;;2.30;;
53483;SDS011;75581;50.088;19.966;2024-01-25T06:02:35;6.30;;;1.50;;
53483;SDS011;75581;50.088;19.966;2024-01-25T06:05:04;10.20;;;1.90;;
53483;SDS011;75581;50.088;19.966;2024-01-25T06:07:33;7.90;;;1.60;;
53483;SDS011;75581;50.088;19.966;2024-01-25T06:10:03;7.10;;;1.50;;
53483;SDS011;75581;50.088;19.966;2024-01-25T06:12:32;8.50;;;1.80;;
53483;SDS011;75581;50.088;19.966;2024-01-25T06:15:01;8.30;;;1.60;;
53483;SDS011;75581;50.088;19.966;2024-01-25T06:17:30;5.90;;;1.50;;
53483;SDS011;75581;50.088;19.966;2024-01-25T06:20:00;9.80;;;2.10;;
53483;SDS011;75581;50.088;19.966;2024-01-25T06:22:29;7.90;;;2.10;;
53483;SDS011;75581;50.088;19.966;2024-01-25T06:24:59;7.40;;;1.90;;
53483;SDS011;75581;50.088;19.966;2024-01-25T06:27:28;6.70;;;1.60;;
53483;SDS011;75581;50.088;19.966;2024-01-25T06:29:56;8.60;;;2.20;;
53483;SDS011;75581;50.088;19.966;2024-01-25T06:32:25;8.60;;;1.60;;
53483;SDS011;75581;50.088;19.966;2024-01-25T06:34:54;8.10;;;1.80;;
53483;SDS011;75581;50.088;19.966;2024-01-25T06:37:24;8.40;;;1.80;;
53483;SDS011;75581;50.088;19.966;2024-01-25T06:39:53;8.10;;;1.90;;
53483;SDS011;75581;50.088;19.966;2024-01-25T06:42:22;9.60;;;2.20;;
53483;SDS011;75581;50.088;19.966;2024-01-25T06:44:50;9.30;;;2.20;;
53483;SDS011;75581;50.088;19.966;2024-01-25T06:47:19;5.90;;;1.30;;
53483;SDS011;75581;50.088;19.966;2024-01-25T06:49:51;9.30;;;2.40;;
53483;SDS011;75581;50.088;19.966;2024-01-25T06:52:20;9.20;;;2.10;;
53483;SDS011;75581;50.088;19.966;2024-01-25T06:54:49;7.60;;;1.70;;
53483;SDS011;75581;50.088;19.966;2024-01-25T06:57:19;6.60;;;1.90;;
53483;SDS011;75581;50.088;19.966;2024-01-25T06:59:48;9.70;;;2.50;;
53483;SDS011;75581;50.088;19.966;2024-01-25T07:02:17;5.40;;;2.00;;
53483;SDS011;75581;50.088;19.966;2024-01-25T07:04:47;8.20;;;1.90;;
53483;SDS011;75581;50.088;19.966;2024-01-25T07:07:16;6.60;;;1.90;;
53483;SDS011;75581;50.088;19.966;2024-01-25T07:09:45;7.60;;;1.90;;
53483;SDS011;75581;50.088;19.966;2024-01-25T07:12:14;8.40;;;2.00;;
53483;SDS011;75581;50.088;19.966;2024-01-25T07:14:43;5.80;;;1.90;;
53483;SDS011;75581;50.088;19.966;2024-01-25T07:17:12;9.50;;;2.30;;
53483;SDS011;75581;50.088;19.966;2024-01-25T07:19:41;6.90;;;1.60;;
53483;SDS011;75581;50.088;19.966;2024-01-25T07:22:10;7.00;;;2.00;;
53483;SDS011;75581;50.088;19.966;2024-01-25T07:24:42;8.40;;;1.90;;
53483;SDS011;75581;50.088;19.966;2024-01-25T07:27:11;5.00;;;1.40;;
53483;SDS011;75581;50.088;19.966;2024-01-25T07:29:40;9.70;;;2.30;;
53483;SDS011;75581;50.088;19.966;2024-01-25T07:32:12;7.90;;;2.10;;
53483;SDS011;75581;50.088;19.966;2024-01-25T07:34:41;8.60;;;1.80;;
53483;SDS011;75581;50.088;19.966;2024-01-25T07:37:11;7.60;;;1.90;;
53483;SDS011;75581;50.088;19.966;2024-01-25T07:39:41;8.60;;;2.10;;
53483;SDS011;75581;50.088;19.966;2024-01-25T07:42:11;5.70;;;1.80;;
53483;SDS011;75581;50.088;19.966;2024-01-25T07:44:40;6.20;;;2.20;;
53483;SDS011;75581;50.088;19.966;2024-01-25T07:47:09;11.80;;;2.20;;
53483;SDS011;75581;50.088;19.966;2024-01-25T07:49:38;11.30;;;2.90;;
53483;SDS011;75581;50.088;19.966;2024-01-25T07:52:09;12.50;;;2.80;;
53483;SDS011;75581;50.088;19.966;2024-01-25T07:54:39;9.30;;;2.60;;
53483;SDS011;75581;50.088;19.966;2024-01-25T07:57:09;8.70;;;2.00;;
53483;SDS011;75581;50.088;19.966;2024-01-25T07:59:38;13.30;;;2.70;;
53483;SDS011;75581;50.088;19.966;2024-01-25T08:02:06;11.70;;;3.90;;
53483;SDS011;75581;50.088;19.966;2024-01-25T08:04:35;13.30;;;2.70;;
53483;SDS011;75581;50.088;19.966;2024-01-25T08:07:05;10.50;;;2.60;;
53483;SDS011;75581;50.088;19.966;2024-01-25T08:09:34;6.40;;;2.00;;
53483;SDS011;75581;50.088;19.966;2024-01-25T08:12:03;10.80;;;2.70;;
53483;SDS011;75581;50.088;19.966;2024-01-25T08:14:32;9.20;;;3.00;;
53483;SDS011;75581;50.088;19.966;2024-01-25T08:17:01;10.90;;;2.90;;
53483;SDS011;75581;50.088;19.966;2024-01-25T08:19:30;6.10;;;1.90;;
53483;SDS011;75581;50.088;19.966;2024-01-25T08:22:00;10.50;;;2.50;;
53483;SDS011;75581;50.088;19.966;2024-01-25T08:24:29;9.70;;;2.40;;
53483;SDS011;75581;50.088;19.966;2024-01-25T08:26:58;8.90;;;2.50;;
53483;SDS011;75581;50.088;19.966;2024-01-25T08:29:26;6.30;;;2.30;;
53483;SDS011;75581;50.088;19.966;2024-01-25T08:31:55;7.00;;;3.00;;
53483;SDS011;75581;50.088;19.966;2024-01-25T08:34:24;7.30;;;2.20;;
53483;SDS011;75581;50.088;19.966;2024-01-25T08:36:53;11.20;;;2.70;;
53483;SDS011;75581;50.088;19.966;2024-01-25T08:39:22;8.20;;;2.30;;
53483;SDS011;75581;50.088;19.966;2024-01-25T08:41:51;7.40;;;2.00;;
53483;SDS011;75581;50.088;19.966;2024-01-25T08:44:20;8.40;;;2.80;;
53483;SDS011;75581;50.088;19.966;2024-01-25T08:46:49;10.70;;;2.90;;
53483;SDS011;75581;50.088;19.966;2024-01-25T08:49:18;12.10;;;2.90;;
53483;SDS011;75581;50.088;19.966;2024-01-25T08:51:47;7.40;;;2.40;;
53483;SDS011;75581;50.088;19.966;2024-01-25T08:54:16;8.60;;;2.50;;
53483;SDS011;75581;50.088;19.966;2024-01-25T08:56:45;7.60;;;2.20;;
53483;SDS011;75581;50.088;19.966;2024-01-25T08:59:13;8.90;;;2.80;;
53483;SDS011;75581;50.088;19.966;2024-01-25T09:01:42;11.20;;;3.20;;
53483;SDS011;75581;50.088;19.966;2024-01-25T09:04:11;9.20;;;2.70;;
53483;SDS011;75581;50.088;19.966;2024-01-25T09:06:40;7.90;;;2.50;;
53483;SDS011;75581;50.088;19.966;2024-01-25T09:09:09;11.70;;;2.60;;
53483;SDS011;75581;50.088;19.966;2024-01-25T09:11:39;10.70;;;2.60;;
53483;SDS011;75581;50.088;19.966;2024-01-25T09:14:09;11.50;;;2.80;;
53483;SDS011;75581;50.088;19.966;2024-01-25T09:16:38;11.50;;;2.80;;
53483;SDS011;75581;50.088;19.966;2024-01-25T09:19:07;8.70;;;2.90;;
53483;SDS011;75581;50.088;19.966;2024-01-25T09:21:41;10.60;;;2.70;;
53483;SDS011;75581;50.088;19.966;2024-01-25T09:24:11;10.00;;;2.90;;
53483;SDS011;75581;50.088;19.966;2024-01-25T09:26:40;11.50;;;3.30;;
53483;SDS011;75581;50.088;19.966;2024-01-25T09:29:10;9.20;;;2.60;;
53483;SDS011;75581;50.088;19.966;2024-01-25T09:31:39;10.40;;;2.90;;
53483;SDS011;75581;50.088;19.966;2024-01-25T09:34:08;11.20;;;3.10;;
53483;SDS011;75581;50.088;19.966;2024-01-25T09:36:37;11.20;;;2.40;;
53483;SDS011;75581;50.088;19.966;2024-01-25T09:39:07;13.40;;;2.90;;
53483;SDS011;75581;50.088;19.966;2024-01-25T09:41:36;9.60;;;2.50;;
53483;SDS011;75581;50.088;19.966;2024-01-25T09:44:07;7.20;;;2.50;;
53483;SDS011;75581;50.088;19.966;2024-01-25T09:46:37;10.80;;;3.00;;
53483;SDS011;75581;50.088;19.966;2024-01-25T09:49:09;9.90;;;2.60;;
53483;SDS011;75581;50.088;19.966;2024-01-25T09:51:40;8.60;;;3.00;;
53483;SDS011;75581;50.088;19.966;2024-01-25T09:54:10;10.50;;;2.70;;
53483;SDS011;75581;50.088;19.966;2024-01-25T09:56:39;10.20;;;2.50;;
53483;SDS011;75581;50.088;19.966;2024-01-25T09:59:09;12.00;;;3.10;;
53483;SDS011;75581;50.088;19.966;2024-01-25T10:01:40;11.70;;;2.50;;
53483;SDS011;75581;50.088;19.966;2024-01-25T10:04:09;10.70;;;2.70;;
53483;SDS011;75581;50.088;19.966;2024-01-25T10:06:38;8.80;;;3.10;;
53483;SDS011;75581;50.088;19.966;2024-01-25T10:09:07;7.70;;;2.40;;
53483;SDS011;75581;50.088;19.966;2024-01-25T10:11:37;9.90;;;3.10;;
53483;SDS011;75581;50.088;19.966;2024-01-25T10:14:14;11.60;;;3.10;;
53483;SDS011;75581;50.088;19.966;2024-01-25T10:16:44;14.60;;;3.40;;
53483;SDS011;75581;50.088;19.966;2024-01-25T10:19:13;12.40;;;3.60;;
53483;SDS011;75581;50.088;19.966;2024-01-25T10:21:43;11.30;;;2.60;;
53483;SDS011;75581;50.088;19.966;2024-01-25T10:24:15;13.10;;;3.00;;
53483;SDS011;75581;50.088;19.966;2024-01-25T10:26:44;7.90;;;2.50;;
53483;SDS011;75581;50.088;19.966;2024-01-25T10:29:14;10.90;;;3.00;;
53483;SDS011;75581;50.088;19.966;2024-01-25T10:31:43;10.00;;;2.80;;
53483;SDS011;75581;50.088;19.966;2024-01-25T10:34:14;10.30;;;3.00;;
53483;SDS011;75581;50.088;19.966;2024-01-25T10:36:44;10.40;;;2.60;;
53483;SDS011;75581;50.088;19.966;2024-01-25T10:39:13;12.60;;;3.10;;
53483;SDS011;75581;50.088;19.966;2024-01-25T10:41:44;10.60;;;2.80;;
53483;SDS011;75581;50.088;19.966;2024-01-25T10:44:20;13.20;;;3.80;;
53483;SDS011;75581;50.088;19.966;2024-01-25T10:46:49;17.50;;;3.50;;
53483;SDS011;75581;50.088;19.966;2024-01-25T10:49:18;11.40;;;3.10;;
53483;SDS011;75581;50.088;19.966;2024-01-25T10:51:48;12.30;;;3.50;;
53483;SDS011;75581;50.088;19.966;2024-01-25T10:54:18;12.70;;;3.10;;
53483;SDS011;75581;50.088;19.966;2024-01-25T10:56:47;12.10;;;3.20;;
53483;SDS011;75581;50.088;19.966;2024-01-25T10:59:16;10.00;;;3.00;;
53483;SDS011;75581;50.088;19.966;2024-01-25T11:01:46;13.90;;;3.30;;
53483;SDS011;75581;50.088;19.966;2024-01-25T11:04:18;9.80;;;2.60;;
53483;SDS011;75581;50.088;19.966;2024-01-25T11:06:48;9.10;;;3.00;;
53483;SDS011;75581;50.088;19.966;2024-01-25T11:09:18;11.60;;;3.00;;
53483;SDS011;75581;50.088;19.966;2024-01-25T11:11:48;12.30;;;3.30;;
53483;SDS011;75581;50.088;19.966;2024-01-25T11:14:24;9.20;;;3.40;;
53483;SDS011;75581;50.088;19.966;2024-01-25T11:16:54;10.60;;;2.80;;
53483;SDS011;75581;50.088;19.966;2024-01-25T11:19:23;12.10;;;3.20;;
53483;SDS011;75581;50.088;19.966;2024-01-25T11:21:52;9.20;;;3.10;;
53483;SDS011;75581;50.088;19.966;2024-01-25T11:24:22;12.60;;;2.90;;
53483;SDS011;75581;50.088;19.966;2024-01-25T11:26:54;13.50;;;3.20;;
53483;SDS011;75581;50.088;19.966;2024-01-25T11:29:24;12.00;;;3.40;;
53483;SDS011;75581;50.088;19.966;2024-01-25T11:31:54;12.70;;;3.30;;
53483;SDS011;75581;50.088;19.966;2024-01-25T11:34:23;9.20;;;2.60;;
53483;SDS011;75581;50.088;19.966;2024-01-25T11:36:53;13.30;;;3.20;;
53483;SDS011;75581;50.088;19.966;2024-01-25T11:39:22;11.60;;;2.90;;
53483;SDS011;75581;50.088;19.966;2024-01-25T11:41:52;9.10;;;2.40;;
53483;SDS011;75581;50.088;19.966;2024-01-25T11:44:21;11.70;;;3.40;;
53483;SDS011;75581;50.088;19.966;2024-01-25T11:46:55;14.40;;;2.90;;
53483;SDS011;75581;50.088;19.966;2024-01-25T11:49:24;12.50;;;3.00;;
53483;SDS011;75581;50.088;19.966;2024-01-25T11:51:54;9.00;;;2.20;;
53483;SDS011;75581;50.088;19.966;2024-01-25T11:54:23;11.60;;;3.10;;
53483;SDS011;75581;50.088;19.966;2024-01-25T11:56:52;14.00;;;3.00;;
53483;SDS011;75581;50.088;19.966;2024-01-25T11:59:22;12.20;;;2.70;;
53483;SDS011;75581;50.088;19.966;2024-01-25T12:01:50;11.90;;;3.10;;
53483;SDS011;75581;50.088;19.966;2024-01-25T12:04:20;10.60;;;2.90;;
53483;SDS011;75581;50.088;19.966;2024-01-25T12:06:50;12.00;;;2.60;;
53483;SDS011;75581;50.088;19.966;2024-01-25T12:09:20;9.70;;;2.70;;
53483;SDS011;75581;50.088;19.966;2024-01-25T12:11:49;8.90;;;2.40;;
53483;SDS011;75581;50.088;19.966;2024-01-25T12:14:20;12.10;;;2.80;;
53483;SDS011;75581;50.088;19.966;2024-01-25T12:16:49;9.20;;;3.10;;
53483;SDS011;75581;50.088;19.966;2024-01-25T12:19:18;12.40;;;3.00;;
53483;SDS011;75581;50.088;19.966;2024-01-25T12:21:49;10.20;;;2.50;;
53483;SDS011;75581;50.088;19.966;2024-01-25T12:24:19;7.50;;;2.60;;
53483;SDS011;75581;50.088;19.966;2024-01-25T12:26:48;9.60;;;2.20;;
53483;SDS011;75581;50.088;19.966;2024-01-25T12:29:17;7.30;;;2.10;;
53483;SDS011;75581;50.088;19.966;2024-01-25T12:31:46;15.10;;;3.60;;
53483;SDS011;75581;50.088;19.966;2024-01-25T12:34:15;10.80;;;2.70;;
53483;SDS011;75581;50.088;19.966;2024-01-25T12:36:45;15.70;;;3.20;;
53483;SDS011;75581;50.088;19.966;2024-01-25T12:39:14;9.10;;;3.00;;
53483;SDS011;75581;50.088;19.966;2024-01-25T12:41:47;11.50;;;3.40;;
53483;SDS011;75581;50.088;19.966;2024-01-25T12:44:19;11.20;;;3.10;;
53483;SDS011;75581;50.088;19.966;2024-01-25T12:46:48;10.60;;;3.00;;
53483;SDS011;75581;50.088;19.966;2024-01-25T12:49:17;10.90;;;2.50;;
53483;SDS011;75581;50.088;19.966;2024-01-25T12:51:50;11.30;;;2.80;;
53483;SDS011;75581;50.088;19.966;2024-01-25T12:54:21;13.40;;;3.30;;
53483;SDS011;75581;50.088;19.966;2024-01-25T12:56:50;11.00;;;3.10;;
53483;SDS011;75581;50.088;19.966;2024-01-25T12:59:20;12.50;;;3.30;;
53483;SDS011;75581;50.088;19.966;2024-01-25T13:01:49;10.20;;;3.30;;
53483;SDS011;75581;50.088;19.966;2024-01-25T13:04:19;12.30;;;3.30;;
53483;SDS011;75581;50.088;19.966;2024-01-25T13:06:51;10.70;;;3.20;;
53483;SDS011;75581;50.088;19.966;2024-01-25T13:09:22;12.50;;;3.50;;
53483;SDS011;75581;50.088;19.966;2024-01-25T13:11:52;9.20;;;2.80;;
53483;SDS011;75581;50.088;19.966;2024-01-25T13:14:21;9.70;;;2.90;;
53483;SDS011;75581;50.088;19.966;2024-01-25T13:16:50;7.90;;;2.30;;
53483;SDS011;75581;50.088;19.966;2024-01-25T13:19:19;12.10;;;2.90;;
53483;SDS011;75581;50.088;19.966;2024-01-25T13:21:48;8.70;;;2.40;;
53483;SDS011;75581;50.088;19.966;2024-01-25T13:24:20;13.00;;;2.80;;
53483;SDS011;75581;50.088;19.966;2024-01-25T13:26:49;11.50;;;3.50;;
53483;SDS011;75581;50.088;19.966;2024-01-25T13:29:18;8.40;;;2.40;;
53483;SDS011;75581;50.088;19.966;2024-01-25T13:31:47;9.10;;;2.80;;
53483;SDS011;75581;50.088;19.966;2024-01-25T13:34:16;13.40;;;3.40;;
53483;SDS011;75581;50.088;19.966;2024-01-25T13:36:45;13.20;;;3.20;;
53483;SDS011;75581;50.088;19.966;2024-01-25T13:39:14;11.20;;;3.40;;
53483;SDS011;75581;50.088;19.966;2024-01-25T13:41:43;12.70;;;3.90;;
53483;SDS011;75581;50.088;19.966;2024-01-25T13:44:14;13.00;;;4.20;;
53483;SDS011;75581;50.088;19.966;2024-01-25T13:46:43;9.80;;;3.00;;
53483;SDS011;75581;50.088;19.966;2024-01-25T13:49:12;8.10;;;3.00;;
53483;SDS011;75581;50.088;19.966;2024-01-25T13:51:43;11.90;;;2.90;;
53483;SDS011;75581;50.088;19.966;2024-01-25T13:54:15;8.60;;;2.80;;
53483;SDS011;75581;50.088;19.966;2024-01-25T13:56:44;10.40;;;3.10;;
53483;SDS011;75581;50.088;19.966;2024-01-25T13:59:13;11.80;;;2.60;;
53483;SDS011;75581;50.088;19.966;2024-01-25T14:01:42;10.90;;;3.30;;
53483;SDS011;75581;50.088;19.966;2024-01-25T14:04:11;12.90;;;3.50;;
53483;SDS011;75581;50.088;19.966;2024-01-25T14:06:41;12.70;;;3.10;;
53483;SDS011;75581;50.088;19.966;2024-01-25T14:09:10;8.50;;;3.10;;
53483;SDS011;75581;50.088;19.966;2024-01-25T14:11:39;6.20;;;2.80;;
53483;SDS011;75581;50.088;19.966;2024-01-25T14:14:08;10.60;;;3.00;;
53483;SDS011;75581;50.088;19.966;2024-01-25T14:16:37;16.80;;;3.90;;
53483;SDS011;75581;50.088;19.966;2024-01-25T14:19:06;9.20;;;3.00;;
53483;SDS011;75581;50.088;19.966;2024-01-25T14:21:35;14.30;;;3.50;;
53483;SDS011;75581;50.088;19.966;2024-01-25T14:24:05;15.90;;;3.90;;
53483;SDS011;75581;50.088;19.966;2024-01-25T14:26:34;13.20;;;3.90;;
53483;SDS011;75581;50.088;19.966;2024-01-25T14:29:03;13.30;;;3.30;;
53483;SDS011;75581;50.088;19.966;2024-01-25T14:31:32;11.80;;;3.10;;
53483;SDS011;75581;50.088;19.966;2024-01-25T14:34:01;10.30;;;3.20;;
53483;SDS011;75581;50.088;19.966;2024-01-25T14:36:31;14.00;;;3.90;;
53483;SDS011;75581;50.088;19.966;2024-01-25T14:39:00;14.20;;;4.00;;
53483;SDS011;75581;50.088;19.966;2024-01-25T14:41:30;11.30;;;3.50;;
53483;SDS011;75581;50.088;19.966;2024-01-25T14:44:00;14.70;;;4.30;;
53483;SDS011;75581;50.088;19.966;2024-01-25T14:46:29;11.20;;;4.00;;